Terminal Aerodrome Forecast
Issued by NWS

Home | Current Version | Previous Version | Text Only | Print | Product List | Glossary On
Versions: 1 2 3 4 5 6 7 8 9 10 11 12 13 14 15 16 17 18 19 20 21 22 23 24 25
000
FTUS41 KBUF 202300
TAFIAG
TAF
KIAG 202327Z 2100/2124 18006KT P6SM VCSH OVC050
     FM210100 20005KT P6SM SCT040 BKN080
     FM210600 21004KT P6SM VCSH BKN050
     FM211100 21004KT P6SM VCSH BKN025
     FM211600 23008KT P6SM VCSH BKN040=

USA.gov is the U.S. government's official web portal to all federal, state and local government web resources and services.